createdAt,value
2018-03-08T00:00:03.720Z,49.17
2018-03-08T00:02:31.093Z,46.33
2018-03-08T00:04:58.489Z,50.00
2018-03-08T00:07:25.884Z,48.70
2018-03-08T00:09:53.297Z,49.10
2018-03-08T00:12:20.662Z,45.13
2018-03-08T00:14:48.033Z,46.77
2018-03-08T00:17:15.425Z,46.70
2018-03-08T00:19:42.785Z,50.50
2018-03-08T00:22:10.182Z,49.97
2018-03-08T00:24:37.626Z,50.13
2018-03-08T00:27:05.002Z,47.50
2018-03-08T00:29:32.433Z,50.70
2018-03-08T00:31:59.788Z,53.20
2018-03-08T00:34:27.205Z,53.53
2018-03-08T00:36:54.593Z,49.70
2018-03-08T00:39:21.984Z,50.40
2018-03-08T00:41:49.344Z,46.57
2018-03-08T00:44:16.745Z,52.50
2018-03-08T00:46:44.112Z,51.07
2018-03-08T00:49:11.483Z,52.30
2018-03-08T00:51:38.897Z,51.00
2018-03-08T00:54:06.297Z,51.50
2018-03-08T00:56:33.657Z,51.43
2018-03-08T00:59:01.035Z,52.80
2018-03-08T01:01:28.449Z,53.33
2018-03-08T01:03:55.813Z,53.00
2018-03-08T01:06:23.242Z,50.03
2018-03-08T01:08:50.610Z,52.33
2018-03-08T01:11:18.040Z,51.17
2018-03-08T01:13:45.424Z,50.90
2018-03-08T01:16:12.837Z,48.67
2018-03-08T01:18:40.269Z,52.00
2018-03-08T01:21:07.628Z,50.87
2018-03-08T01:23:35.030Z,52.70
2018-03-08T01:26:02.393Z,52.10
2018-03-08T01:28:29.765Z,51.97
2018-03-08T01:30:57.169Z,51.80
2018-03-08T01:33:24.541Z,50.37
2018-03-08T01:35:51.897Z,50.63
2018-03-08T01:38:19.310Z,49.87
2018-03-08T01:40:46.671Z,51.37
2018-03-08T01:43:14.045Z,50.00
2018-03-08T01:45:41.449Z,50.50
2018-03-08T01:48:08.825Z,51.50
2018-03-08T01:50:36.238Z,50.17
2018-03-08T01:53:03.607Z,49.10
2018-03-08T01:55:31.022Z,48.37
2018-03-08T01:57:58.418Z,48.13
2018-03-08T02:00:25.829Z,49.80
2018-03-08T02:02:53.250Z,50.20
2018-03-08T02:05:20.633Z,49.53
2018-03-08T02:07:48.035Z,47.13
2018-03-08T02:10:15.445Z,49.13
2018-03-08T02:12:42.809Z,49.70
2018-03-08T02:15:10.219Z,48.10
2018-03-08T02:17:37.627Z,48.93
2018-03-08T02:20:04.995Z,50.17
2018-03-08T02:22:32.357Z,51.50
2018-03-08T02:24:59.763Z,49.00
2018-03-08T02:27:27.161Z,49.30
2018-03-08T02:29:54.573Z,50.30
2018-03-08T02:32:21.938Z,49.47
2018-03-08T02:34:49.301Z,47.33
2018-03-08T02:37:16.710Z,47.20
2018-03-08T02:39:44.079Z,50.37
2018-03-08T02:42:11.447Z,51.00
2018-03-08T02:44:38.841Z,50.93
2018-03-08T02:47:06.241Z,50.27
2018-03-08T02:49:33.618Z,51.00
2018-03-08T02:52:01.022Z,48.70
2018-03-08T02:54:28.429Z,47.27
2018-03-08T02:56:55.797Z,50.00
2018-03-08T02:59:23.158Z,49.23
2018-03-08T03:01:50.565Z,48.57
2018-03-08T03:04:17.965Z,50.27
2018-03-08T03:06:45.338Z,47.30
2018-03-08T03:09:12.736Z,49.77
2018-03-08T03:11:40.108Z,50.30
2018-03-08T03:14:07.475Z,48.53
2018-03-08T03:16:34.880Z,50.67
2018-03-08T03:19:02.292Z,49.07
2018-03-08T03:21:29.669Z,47.23
2018-03-08T03:23:57.073Z,49.90
2018-03-08T03:26:24.439Z,48.60
2018-03-08T03:28:51.798Z,50.97
2018-03-08T03:31:19.195Z,48.00
2018-03-08T03:33:46.566Z,49.67
2018-03-08T03:36:13.985Z,50.07
2018-03-08T03:38:41.350Z,50.03
2018-03-08T03:41:08.746Z,47.93
2018-03-08T03:43:36.109Z,50.10
2018-03-08T03:46:03.545Z,50.33
2018-03-08T03:48:30.908Z,51.47
2018-03-08T03:50:58.269Z,51.60
2018-03-08T03:53:25.672Z,51.33
2018-03-08T03:55:53.042Z,48.97
2018-03-08T03:58:20.442Z,49.00
2018-03-08T04:00:47.865Z,50.70
2018-03-08T04:03:15.233Z,52.00
2018-03-08T04:05:42.598Z,48.30
2018-03-08T04:08:10.009Z,49.10
2018-03-08T04:10:37.378Z,47.50
2018-03-08T04:13:04.794Z,49.87
2018-03-08T04:15:32.165Z,50.33
2018-03-08T04:17:59.580Z,48.50
2018-03-08T04:20:26.975Z,52.70
2018-03-08T04:22:54.349Z,53.03
2018-03-08T04:25:21.754Z,51.10
2018-03-08T04:27:49.125Z,51.97
2018-03-08T04:30:16.502Z,52.50
2018-03-08T04:32:43.893Z,52.90
2018-03-08T04:35:11.321Z,51.13
2018-03-08T04:37:38.694Z,53.03
2018-03-08T04:40:06.081Z,52.90
2018-03-08T04:42:33.477Z,50.77
2018-03-08T04:45:00.837Z,53.80
2018-03-08T04:47:28.251Z,53.07
2018-03-08T04:49:55.641Z,51.27
2018-03-08T04:52:23.042Z,53.83
2018-03-08T04:54:50.463Z,51.93
2018-03-08T04:57:17.823Z,51.47
2018-03-08T04:59:45.185Z,49.93
2018-03-08T05:02:18.588Z,50.53
2018-03-08T05:04:45.945Z,48.83
2018-03-08T05:07:13.349Z,48.97
2018-03-08T05:09:40.714Z,51.20
2018-03-08T05:12:08.075Z,50.50
2018-03-08T05:14:35.474Z,51.10
2018-03-08T05:17:02.901Z,49.90
2018-03-08T05:19:30.281Z,48.50
2018-03-08T05:21:57.697Z,51.40
2018-03-08T05:24:25.096Z,51.10
2018-03-08T05:26:52.457Z,47.77
2018-03-08T05:29:19.880Z,50.43
2018-03-08T05:31:47.273Z,48.60
2018-03-08T05:34:14.688Z,51.50
2018-03-08T05:36:42.070Z,53.50
2018-03-08T05:39:09.446Z,49.47
2018-03-08T05:41:36.847Z,49.60
2018-03-08T05:44:04.211Z,49.40
2018-03-08T05:46:31.574Z,49.83
2018-03-08T05:48:58.972Z,49.20
2018-03-08T05:51:26.334Z,51.17
2018-03-08T05:53:53.730Z,51.00
2018-03-08T05:56:21.122Z,51.40
2018-03-08T05:58:48.541Z,46.20
2018-03-08T06:01:20.872Z,46.60
2018-03-08T06:03:48.230Z,48.80
2018-03-08T06:06:15.898Z,48.67
2018-03-08T06:08:43.258Z,48.77
2018-03-08T06:11:10.669Z,46.50
2018-03-08T06:13:38.066Z,45.63
2018-03-08T06:16:05.432Z,42.50
2018-03-08T06:18:32.834Z,45.20
2018-03-08T06:21:00.210Z,42.80
2018-03-08T06:23:27.608Z,40.70
2018-03-08T06:25:54.966Z,40.50
2018-03-08T06:28:22.386Z,39.33
2018-03-08T06:30:49.750Z,37.40
2018-03-08T06:33:17.117Z,38.53
2018-03-08T06:35:44.518Z,39.23
2018-03-08T06:38:11.882Z,38.47
2018-03-08T06:40:39.281Z,38.80
2018-03-08T06:43:06.658Z,36.23
2018-03-08T06:45:34.026Z,36.03
2018-03-08T06:48:01.433Z,37.17
2018-03-08T06:50:28.793Z,38.20
2018-03-08T06:52:56.204Z,37.80
2018-03-08T06:55:23.603Z,34.20
2018-03-08T06:57:51.006Z,32.40
2018-03-08T07:00:18.367Z,30.40
2018-03-08T07:02:45.754Z,30.20
2018-03-08T07:05:13.113Z,29.63
2018-03-08T07:07:40.531Z,28.00
2018-03-08T07:10:07.887Z,29.30
2018-03-08T07:12:35.338Z,29.37
2018-03-08T07:15:02.719Z,29.93
2018-03-08T07:17:30.073Z,26.87
2018-03-08T07:19:57.494Z,25.57
2018-03-08T07:22:24.918Z,25.63
2018-03-08T07:24:52.279Z,25.53
2018-03-08T07:27:19.666Z,26.17
2018-03-08T07:29:47.030Z,23.77
2018-03-08T07:32:14.395Z,22.60
2018-03-08T07:34:41.786Z,21.67
2018-03-08T07:37:09.150Z,22.00
2018-03-08T07:39:36.545Z,21.00
2018-03-08T07:42:03.918Z,21.27
2018-03-08T07:44:31.269Z,21.00
2018-03-08T07:46:58.669Z,20.50
2018-03-08T07:49:26.041Z,19.40
2018-03-08T07:51:53.411Z,18.43
2018-03-08T07:54:20.797Z,18.87
2018-03-08T07:56:48.155Z,18.50
2018-03-08T07:59:15.675Z,17.47
2018-03-08T08:01:43.067Z,17.60
2018-03-08T08:04:25.334Z,18.07
2018-03-08T08:06:58.609Z,15.00
2018-03-08T08:09:26.013Z,15.50
2018-03-08T08:11:53.420Z,13.87
2018-03-08T08:14:20.803Z,14.93
2018-03-08T08:16:48.251Z,16.67
2018-03-08T08:19:15.654Z,15.20
2018-03-08T08:21:43.008Z,15.20
2018-03-08T08:24:10.409Z,14.80
2018-03-08T08:26:37.798Z,14.80
2018-03-08T08:29:05.170Z,14.83
2018-03-08T08:31:32.565Z,14.77
2018-03-08T08:34:00.040Z,13.97
2018-03-08T08:36:27.433Z,15.30
2018-03-08T08:38:54.870Z,14.80
2018-03-08T08:41:22.290Z,14.60
2018-03-08T08:43:49.696Z,14.93
2018-03-08T08:46:17.083Z,13.80
2018-03-08T08:48:44.498Z,15.20
2018-03-08T08:51:11.873Z,13.03
2018-03-08T08:53:39.238Z,13.43
2018-03-08T08:56:06.662Z,13.10
2018-03-08T08:58:34.045Z,12.60
2018-03-08T09:01:01.434Z,14.00
2018-03-08T09:03:28.803Z,12.73
2018-03-08T09:05:56.221Z,14.80
2018-03-08T09:08:23.622Z,13.33
2018-03-08T09:10:51.283Z,13.00
2018-03-08T09:13:18.639Z,13.00
2018-03-08T09:15:46.041Z,14.67
2018-03-08T09:18:13.423Z,13.67
2018-03-08T09:20:41.672Z,13.50
2018-03-08T09:23:09.137Z,12.83
2018-03-08T09:25:36.505Z,12.37
2018-03-08T09:28:03.905Z,11.70
2018-03-08T09:30:31.319Z,12.37
2018-03-08T09:32:58.680Z,12.30
2018-03-08T09:35:26.079Z,13.30
2018-03-08T09:37:53.433Z,11.50
2018-03-08T09:40:20.785Z,11.47
2018-03-08T09:42:48.182Z,10.13
2018-03-08T09:45:15.557Z,10.90
2018-03-08T09:47:42.952Z,11.53
2018-03-08T09:50:10.350Z,10.70
2018-03-08T09:52:37.714Z,10.53
2018-03-08T09:55:05.114Z,12.43
2018-03-08T09:57:32.474Z,11.27
2018-03-08T09:59:59.874Z,13.37
2018-03-08T10:02:27.239Z,12.07
2018-03-08T10:04:54.634Z,12.10
2018-03-08T10:07:22.032Z,13.57
2018-03-08T10:09:49.390Z,13.13
2018-03-08T10:12:16.790Z,12.07
2018-03-08T10:14:44.207Z,12.83
2018-03-08T10:17:11.598Z,13.83
2018-03-08T10:19:38.962Z,14.83
2018-03-08T10:22:06.386Z,16.90
2018-03-08T10:24:33.781Z,19.17
2018-03-08T10:27:01.155Z,18.77
2018-03-08T10:29:28.553Z,19.03
2018-03-08T10:31:55.927Z,19.07
2018-03-08T10:34:23.286Z,18.70
2018-03-08T10:36:50.686Z,20.37
2018-03-08T10:39:29.764Z,19.07
2018-03-08T10:41:45.437Z,20.30
2018-03-08T10:44:12.855Z,18.90
2018-03-08T10:46:40.222Z,18.13
2018-03-08T10:49:07.602Z,19.10
2018-03-08T10:51:35.014Z,18.90
2018-03-08T10:54:02.370Z,20.37
2018-03-08T10:56:29.725Z,18.40
2018-03-08T10:58:57.130Z,17.83
2018-03-08T11:01:25.271Z,17.23
2018-03-08T11:03:55.478Z,19.43
2018-03-08T11:06:28.758Z,18.53
2018-03-08T11:08:56.144Z,19.43
2018-03-08T11:11:23.506Z,19.07
2018-03-08T11:13:50.913Z,19.20
2018-03-08T11:16:18.278Z,18.37
2018-03-08T11:18:45.641Z,19.37
2018-03-08T11:21:13.025Z,18.90
2018-03-08T11:23:40.468Z,18.90
2018-03-08T11:26:07.825Z,17.80
2018-03-08T11:28:35.179Z,18.30
2018-03-08T11:31:02.585Z,18.80
2018-03-08T11:33:29.956Z,18.37
2018-03-08T11:35:57.313Z,19.20
2018-03-08T11:38:24.718Z,18.20
2018-03-08T11:40:52.077Z,17.30
2018-03-08T11:43:19.706Z,20.87
2018-03-08T11:45:47.116Z,17.50
2018-03-08T11:48:14.503Z,16.23
2018-03-08T11:50:41.870Z,16.20
2018-03-08T11:53:09.419Z,16.90
2018-03-08T11:55:36.648Z,15.97
2018-03-08T11:58:04.038Z,16.03
2018-03-08T12:00:31.406Z,15.10
2018-03-08T12:02:58.824Z,15.67
2018-03-08T12:05:26.217Z,15.27
2018-03-08T12:07:53.574Z,15.90
2018-03-08T12:10:21.014Z,15.33
2018-03-08T12:12:48.369Z,15.30
2018-03-08T12:15:15.727Z,17.13
2018-03-08T12:17:43.115Z,16.53
2018-03-08T12:20:10.473Z,14.40
2018-03-08T12:22:37.866Z,15.93
2018-03-08T12:25:05.221Z,15.60
2018-03-08T12:27:32.574Z,15.13
2018-03-08T12:29:59.969Z,15.57
2018-03-08T12:32:27.325Z,15.00
2018-03-08T12:34:54.713Z,15.03
2018-03-08T12:37:22.126Z,15.60
2018-03-08T12:39:49.516Z,15.47
2018-03-08T12:42:16.901Z,15.83
2018-03-08T12:44:44.301Z,16.27
2018-03-08T12:47:11.670Z,15.63
2018-03-08T12:49:39.040Z,16.70
2018-03-08T12:52:06.441Z,15.93
2018-03-08T12:54:33.793Z,15.70
2018-03-08T12:57:01.218Z,15.80
2018-03-08T12:59:28.573Z,16.73
2018-03-08T13:01:55.934Z,16.53
2018-03-08T13:04:23.358Z,16.53
2018-03-08T13:06:50.731Z,15.73
2018-03-08T13:09:18.089Z,16.97
2018-03-08T13:11:45.521Z,16.50
2018-03-08T13:14:12.902Z,15.70
2018-03-08T13:16:40.318Z,16.17
2018-03-08T13:19:07.674Z,15.93
2018-03-08T13:21:35.038Z,16.53
2018-03-08T13:24:02.479Z,17.87
2018-03-08T13:26:29.871Z,14.57
2018-03-08T13:28:57.221Z,15.30
2018-03-08T13:31:24.582Z,15.40
2018-03-08T13:33:51.978Z,14.93
2018-03-08T13:36:19.410Z,14.20
2018-03-08T13:38:46.766Z,14.43
2018-03-08T13:41:14.160Z,13.40
2018-03-08T13:43:41.593Z,14.63
2018-03-08T13:46:08.954Z,13.90
2018-03-08T13:48:36.318Z,14.30
2018-03-08T13:51:03.712Z,14.17
2018-03-08T13:53:31.070Z,13.50
2018-03-08T13:55:58.453Z,14.80
2018-03-08T13:58:25.853Z,13.83
2018-03-08T14:00:53.209Z,12.40
2018-03-08T14:03:20.587Z,12.50
2018-03-08T14:05:48.010Z,12.70
2018-03-08T14:08:15.363Z,12.87
2018-03-08T14:10:42.765Z,11.33
2018-03-08T14:13:10.120Z,12.33
2018-03-08T14:15:37.488Z,11.53
2018-03-08T14:18:04.889Z,12.10
2018-03-08T14:20:32.254Z,11.10
2018-03-08T14:22:59.614Z,13.07
2018-03-08T14:25:27.031Z,11.27
2018-03-08T14:27:54.389Z,11.30
2018-03-08T14:30:21.769Z,11.60
2018-03-08T14:32:49.186Z,11.00
2018-03-08T14:35:16.582Z,11.60
2018-03-08T14:37:43.937Z,11.67
2018-03-08T14:40:11.325Z,11.53
2018-03-08T14:42:38.709Z,10.50
2018-03-08T14:45:06.105Z,9.73
2018-03-08T14:47:33.532Z,7.57
2018-03-08T14:50:00.866Z,6.60
2018-03-08T14:52:28.244Z,6.37
2018-03-08T14:54:55.610Z,6.33
2018-03-08T14:57:22.994Z,6.03
2018-03-08T14:59:50.389Z,6.30
2018-03-08T15:02:17.734Z,5.40
2018-03-08T15:04:45.094Z,5.00
2018-03-08T15:07:12.472Z,5.40
2018-03-08T15:09:39.818Z,5.63
2018-03-08T15:12:07.174Z,5.33
2018-03-08T15:14:34.562Z,5.23
2018-03-08T15:17:01.926Z,4.83
2018-03-08T15:19:29.276Z,4.77
2018-03-08T15:21:56.656Z,5.00
2018-03-08T15:24:24.025Z,5.27
2018-03-08T15:26:51.401Z,5.30
2018-03-08T15:29:18.745Z,4.90
2018-03-08T15:31:46.133Z,4.87
2018-03-08T15:34:13.499Z,4.40
2018-03-08T15:36:40.850Z,4.30
2018-03-08T15:39:08.225Z,4.20
2018-03-08T15:41:35.571Z,4.60
2018-03-08T15:44:02.949Z,4.40
2018-03-08T15:46:30.305Z,4.47
2018-03-08T15:48:57.680Z,4.40
2018-03-08T15:51:25.040Z,4.53
2018-03-08T15:53:52.474Z,4.60
2018-03-08T15:56:19.856Z,4.60
2018-03-08T15:58:47.231Z,4.00
2018-03-08T16:01:14.573Z,4.00
2018-03-08T16:03:41.961Z,4.67
2018-03-08T16:06:09.313Z,4.40
2018-03-08T16:08:46.406Z,4.93
2018-03-08T16:11:13.801Z,4.70
2018-03-08T16:13:41.177Z,8.00
2018-03-08T16:16:08.587Z,10.30
2018-03-08T16:18:35.939Z,7.30
2018-03-08T16:21:03.289Z,7.33
2018-03-08T16:23:30.693Z,7.20
2018-03-08T16:25:58.065Z,7.50
2018-03-08T16:28:25.454Z,9.30
2018-03-08T16:30:52.815Z,6.90
2018-03-08T16:33:20.172Z,7.10
2018-03-08T16:35:47.579Z,5.40
2018-03-08T16:38:15.006Z,6.93
2018-03-08T16:40:42.362Z,6.83
2018-03-08T16:43:09.709Z,8.60
2018-03-08T16:45:37.133Z,7.13
2018-03-08T16:48:04.495Z,7.20
2018-03-08T16:50:31.893Z,6.40
2018-03-08T16:52:59.245Z,5.50
2018-03-08T16:55:26.668Z,6.00
2018-03-08T16:57:54.018Z,5.70
2018-03-08T17:00:21.404Z,6.47
2018-03-08T17:02:48.836Z,6.77
2018-03-08T17:05:16.375Z,6.23
2018-03-08T17:07:44.030Z,7.30
2018-03-08T17:10:11.553Z,7.67
2018-03-08T17:12:38.918Z,8.10
2018-03-08T17:15:06.328Z,7.27
2018-03-08T17:17:33.738Z,6.20
2018-03-08T17:20:01.148Z,7.13
2018-03-08T17:22:28.743Z,7.70
2018-03-08T17:24:56.184Z,8.00
2018-03-08T17:27:23.626Z,9.03
2018-03-08T17:29:50.978Z,8.80
2018-03-08T17:32:18.409Z,7.90
2018-03-08T17:34:45.914Z,7.80
2018-03-08T17:37:13.326Z,7.77
2018-03-08T17:39:40.694Z,7.80
2018-03-08T17:42:08.059Z,7.33
2018-03-08T17:44:35.651Z,8.13
2018-03-08T17:47:03.020Z,7.87
2018-03-08T17:49:30.430Z,7.90
2018-03-08T17:51:58.734Z,7.90
2018-03-08T17:54:26.191Z,7.60
2018-03-08T17:56:53.598Z,8.40
2018-03-08T17:59:21.412Z,10.73
2018-03-08T18:01:48.838Z,8.20
2018-03-08T18:04:16.199Z,7.47
2018-03-08T18:06:43.563Z,6.53
2018-03-08T18:09:10.990Z,6.60
2018-03-08T18:11:38.363Z,6.73
2018-03-08T18:14:05.745Z,7.03
2018-03-08T18:16:33.097Z,6.80
2018-03-08T18:19:00.486Z,8.00
2018-03-08T18:21:27.890Z,7.67
2018-03-08T18:23:55.368Z,7.43
2018-03-08T18:26:22.741Z,8.30
2018-03-08T18:28:50.220Z,7.70
2018-03-08T18:31:17.608Z,7.50
2018-03-08T18:33:44.983Z,7.60
2018-03-08T18:36:12.374Z,8.07
2018-03-08T18:38:39.736Z,7.87
2018-03-08T18:41:07.301Z,7.43
2018-03-08T18:43:34.717Z,6.40
2018-03-08T18:46:02.174Z,7.50
2018-03-08T18:48:29.586Z,7.10
2018-03-08T18:50:56.946Z,6.90
2018-03-08T18:53:24.474Z,7.67
2018-03-08T18:55:51.900Z,7.70
2018-03-08T18:58:25.340Z,8.27
2018-03-08T19:00:52.708Z,7.63
2018-03-08T19:03:20.106Z,8.87
2018-03-08T19:05:47.597Z,7.73
2018-03-08T19:08:15.022Z,8.00
2018-03-08T19:10:42.787Z,7.93
2018-03-08T19:13:10.259Z,7.73
2018-03-08T19:15:37.648Z,6.93
2018-03-08T19:18:05.005Z,7.67
2018-03-08T19:20:32.422Z,7.03
2018-03-08T19:23:00.073Z,6.90
2018-03-08T19:25:27.513Z,7.03
2018-03-08T19:27:55.089Z,6.97
2018-03-08T19:30:22.854Z,7.90
2018-03-08T19:32:50.379Z,7.30
2018-03-08T19:35:17.873Z,8.00
2018-03-08T19:37:45.254Z,8.40
2018-03-08T19:40:12.678Z,6.87
2018-03-08T19:42:40.045Z,6.77
2018-03-08T19:45:07.698Z,6.60
2018-03-08T19:47:35.119Z,6.50
2018-03-08T19:50:02.483Z,6.60
2018-03-08T19:52:29.882Z,5.97
2018-03-08T19:54:57.249Z,6.33
2018-03-08T19:57:24.631Z,6.10
2018-03-08T19:59:52.116Z,5.97
2018-03-08T20:02:19.619Z,7.07
2018-03-08T20:04:47.047Z,6.50
2018-03-08T20:07:15.119Z,6.90
2018-03-08T20:09:43.034Z,7.50
2018-03-08T20:12:10.648Z,6.80
2018-03-08T20:14:38.412Z,8.10
2018-03-08T20:17:06.075Z,6.80
2018-03-08T20:19:33.735Z,7.30
2018-03-08T20:22:01.503Z,7.60
2018-03-08T20:24:29.277Z,7.10
2018-03-08T20:26:57.130Z,7.10
2018-03-08T20:29:24.949Z,8.13
2018-03-08T20:31:52.658Z,7.90
2018-03-08T20:34:20.424Z,6.73
2018-03-08T20:36:47.982Z,7.60
2018-03-08T20:39:15.349Z,7.77
2018-03-08T20:41:42.762Z,6.87
2018-03-08T20:44:10.165Z,7.50
2018-03-08T20:46:37.524Z,7.93
2018-03-08T20:49:04.882Z,7.90
2018-03-08T20:51:32.274Z,8.00
2018-03-08T20:53:59.659Z,7.40
2018-03-08T20:56:27.048Z,6.97
2018-03-08T20:58:54.501Z,7.63
2018-03-08T21:01:21.873Z,8.03
2018-03-08T21:03:49.284Z,9.00
2018-03-08T21:06:16.663Z,8.17
2018-03-08T21:08:44.177Z,7.90
2018-03-08T21:11:11.712Z,8.13
2018-03-08T21:13:39.082Z,8.13
2018-03-08T21:16:06.504Z,7.40
2018-03-08T21:18:33.879Z,7.37
2018-03-08T21:21:02.238Z,7.10
2018-03-08T21:23:29.601Z,8.20
2018-03-08T21:25:56.973Z,6.53
2018-03-08T21:28:24.361Z,7.23
2018-03-08T21:30:51.734Z,6.87
2018-03-08T21:33:19.133Z,6.53
2018-03-08T21:35:46.578Z,7.57
2018-03-08T21:38:13.938Z,6.07
2018-03-08T21:40:41.299Z,6.40
2018-03-08T21:43:08.711Z,7.20
2018-03-08T21:45:36.098Z,7.97
2018-03-08T21:48:03.505Z,8.20
2018-03-08T21:50:30.926Z,9.37
2018-03-08T21:52:58.281Z,6.80
2018-03-08T21:55:25.718Z,7.33
2018-03-08T21:57:53.098Z,6.73
2018-03-08T22:00:20.462Z,7.60
2018-03-08T22:02:47.873Z,7.70
2018-03-08T22:05:15.228Z,6.90
2018-03-08T22:07:42.652Z,7.73
2018-03-08T22:10:10.018Z,7.50
2018-03-08T22:12:37.437Z,8.50
2018-03-08T22:15:04.842Z,8.30
2018-03-08T22:17:32.197Z,7.77
2018-03-08T22:19:59.648Z,6.83
2018-03-08T22:22:27.042Z,6.60
2018-03-08T22:24:54.452Z,6.80
2018-03-08T22:27:21.834Z,7.20
2018-03-08T22:29:49.193Z,7.00
2018-03-08T22:32:16.590Z,7.30
2018-03-08T22:34:43.942Z,6.70
2018-03-08T22:37:11.318Z,7.27
2018-03-08T22:39:38.734Z,6.57
2018-03-08T22:42:06.089Z,7.20
2018-03-08T22:44:33.477Z,8.07
2018-03-08T22:47:00.829Z,7.90
2018-03-08T22:49:28.221Z,6.47
2018-03-08T22:51:55.607Z,8.50
2018-03-08T22:54:22.962Z,9.13
2018-03-08T22:56:50.365Z,9.13
2018-03-08T22:59:17.726Z,9.20
2018-03-08T23:01:59.999Z,9.20
2018-03-08T23:04:27.418Z,6.60
2018-03-08T23:06:54.821Z,6.13
2018-03-08T23:09:22.952Z,7.17
2018-03-08T23:11:50.296Z,7.73
2018-03-08T23:14:17.685Z,9.20
2018-03-08T23:16:45.090Z,8.37
2018-03-08T23:19:12.480Z,9.70
2018-03-08T23:21:39.833Z,4.80
2018-03-08T23:24:07.238Z,4.80
2018-03-08T23:26:34.629Z,4.77
2018-03-08T23:29:01.977Z,5.50
2018-03-08T23:31:29.380Z,4.97
2018-03-08T23:33:56.737Z,4.13
2018-03-08T23:36:24.131Z,4.60
2018-03-08T23:38:51.504Z,4.40
2018-03-08T23:41:18.866Z,3.90
2018-03-08T23:43:46.246Z,3.43
2018-03-08T23:46:13.611Z,3.60
2018-03-08T23:48:40.989Z,4.13
2018-03-08T23:51:08.333Z,3.83
2018-03-08T23:53:35.725Z,3.73
2018-03-08T23:56:03.082Z,3.60
2018-03-08T23:58:30.432Z,5.00
